createdAt,value
2022-08-08T00:08:29.145Z,22.24
2022-08-08T00:19:08.894Z,22.15
2022-08-08T00:29:45.593Z,22.04
2022-08-08T00:41:10.146Z,21.81
2022-08-08T00:51:39.030Z,21.48
2022-08-08T01:03:58.445Z,21.28
2022-08-08T01:13:09.729Z,21.35
2022-08-08T01:24:05.770Z,20.87
2022-08-08T01:34:36.748Z,20.75
2022-08-08T01:45:02.961Z,20.67
2022-08-08T01:56:27.070Z,20.36
2022-08-08T02:06:00.658Z,20.49
2022-08-08T02:16:37.753Z,20.23
2022-08-08T02:27:03.554Z,20.30
2022-08-08T02:37:53.200Z,20.31
2022-08-08T02:47:52.152Z,20.25
2022-08-08T02:58:20.343Z,20.12
2022-08-08T03:09:13.123Z,19.95
2022-08-08T03:19:51.404Z,19.91
2022-08-08T03:30:04.986Z,19.73
2022-08-08T03:40:29.974Z,19.61
2022-08-08T03:50:32.752Z,19.49
2022-08-08T04:01:01.740Z,19.46
2022-08-08T04:11:11.266Z,19.48
2022-08-08T04:21:22.822Z,19.55
2022-08-08T04:31:30.803Z,19.65
2022-08-08T04:41:48.820Z,19.85
2022-08-08T04:51:57.136Z,19.90
2022-08-08T05:02:00.968Z,20.21
2022-08-08T05:12:03.880Z,20.47
2022-08-08T05:22:12.144Z,20.78
2022-08-08T05:32:19.243Z,21.12
2022-08-08T05:42:49.620Z,21.53
2022-08-08T05:52:51.944Z,21.80
2022-08-08T06:03:24.801Z,22.32
2022-08-08T06:13:35.563Z,22.73
2022-08-08T06:23:52.987Z,25.68
2022-08-08T06:34:27.192Z,40.16
2022-08-08T06:44:34.389Z,46.63
2022-08-08T06:54:37.604Z,51.11
2022-08-08T07:04:52.366Z,51.95
2022-08-08T07:15:06.189Z,51.84
2022-08-08T07:25:31.817Z,51.45
2022-08-08T07:35:35.504Z,54.57
2022-08-08T07:46:04.934Z,53.22
2022-08-08T07:56:02.541Z,55.42
2022-08-08T08:06:06.484Z,55.73
2022-08-08T08:16:19.700Z,55.75
2022-08-08T08:26:27.270Z,56.87
2022-08-08T08:36:29.867Z,55.37
2022-08-08T08:46:35.623Z,54.99
2022-08-08T08:56:42.272Z,56.42
2022-08-08T09:06:53.718Z,56.94
2022-08-08T09:17:00.134Z,56.31
2022-08-08T09:27:20.129Z,56.59
2022-08-08T09:37:58.370Z,56.13
2022-08-08T09:48:10.044Z,53.36
2022-08-08T09:58:27.833Z,49.75
2022-08-08T10:08:48.367Z,50.48
2022-08-08T10:19:04.597Z,53.03
2022-08-08T10:29:11.343Z,50.06
2022-08-08T10:39:31.750Z,53.58
2022-08-08T10:50:01.238Z,52.86
2022-08-08T11:00:05.730Z,50.88
2022-08-08T11:10:12.651Z,41.88
2022-08-08T11:20:28.385Z,35.40
2022-08-08T11:30:34.109Z,33.81
2022-08-08T11:40:42.795Z,33.13
2022-08-08T11:50:47.800Z,33.22
2022-08-08T12:00:58.258Z,32.80
2022-08-08T12:11:03.910Z,33.17
2022-08-08T12:21:05.715Z,33.79
2022-08-08T12:31:10.513Z,34.17
2022-08-08T12:41:34.088Z,34.51
2022-08-08T12:51:49.800Z,34.35
2022-08-08T13:02:00.803Z,34.89
2022-08-08T13:12:28.878Z,35.17
2022-08-08T13:22:36.505Z,35.38
2022-08-08T13:32:39.955Z,35.76
2022-08-08T13:42:42.374Z,36.06
2022-08-08T13:52:50.145Z,35.01
2022-08-08T14:02:59.354Z,35.97
2022-08-08T14:13:06.053Z,37.16
2022-08-08T14:23:21.381Z,36.97
2022-08-08T14:33:38.889Z,37.22
2022-08-08T14:44:10.638Z,37.12
2022-08-08T14:54:16.169Z,36.83
2022-08-08T15:04:30.116Z,36.43
2022-08-08T15:14:34.074Z,36.39
2022-08-08T15:24:37.488Z,36.23
2022-08-08T15:34:39.468Z,36.15
2022-08-08T15:44:42.514Z,35.33
2022-08-08T15:54:51.343Z,34.94
2022-08-08T16:04:54.471Z,34.70
2022-08-08T16:15:00.375Z,33.95
2022-08-08T16:25:05.885Z,33.36
2022-08-08T16:35:09.900Z,32.95
2022-08-08T16:46:37.295Z,32.78
2022-08-08T16:55:53.076Z,32.11
2022-08-08T17:05:56.933Z,31.91
2022-08-08T17:15:58.627Z,31.75
2022-08-08T17:26:05.283Z,31.30
2022-08-08T17:36:10.036Z,31.10
2022-08-08T17:46:41.158Z,30.62
2022-08-08T17:56:43.104Z,30.36
2022-08-08T18:06:49.252Z,30.04
2022-08-08T18:16:52.930Z,29.75
2022-08-08T18:26:58.499Z,29.33
2022-08-08T18:37:04.869Z,28.74
2022-08-08T18:47:11.170Z,28.31
2022-08-08T18:57:12.908Z,27.90
2022-08-08T19:07:14.771Z,27.54
2022-08-08T19:17:29.310Z,27.25
2022-08-08T19:27:56.900Z,27.04
2022-08-08T19:38:00.915Z,26.77
2022-08-08T19:48:03.834Z,26.56
2022-08-08T19:58:07.544Z,26.26
2022-08-08T20:08:30.948Z,26.11
2022-08-08T20:18:39.898Z,25.90
2022-08-08T20:28:53.660Z,25.71
2022-08-08T20:38:55.312Z,25.52
2022-08-08T20:48:58.578Z,25.39
2022-08-08T20:59:01.507Z,25.22
2022-08-08T21:09:07.649Z,24.98
2022-08-08T21:19:10.847Z,24.76
2022-08-08T21:29:14.093Z,24.65
2022-08-08T21:39:23.939Z,24.44
2022-08-08T21:49:43.181Z,24.30
2022-08-08T22:00:03.310Z,24.02
2022-08-08T22:10:18.322Z,23.91
2022-08-08T22:20:31.631Z,23.75
2022-08-08T22:30:33.749Z,23.59
2022-08-08T22:40:35.392Z,23.43
2022-08-08T22:50:37.974Z,23.40
2022-08-08T23:00:41.939Z,23.41
2022-08-08T23:11:00.611Z,23.27
2022-08-08T23:21:08.491Z,23.10
2022-08-08T23:31:10.044Z,22.85
2022-08-08T23:41:23.177Z,22.69
2022-08-08T23:51:41.904Z,22.54
